Terminal Aerodrome Forecast
Issued by NWS Jackson, MS

Home | Current Version | Previous Version | Text Only | Print | Product List | Glossary On
Versions: 1 2 3 4 5 6 7 8 9 10 11 12 13 14 15 16
984
FTUS44 KJAN 231735
TAFJAN
TAF
KJAN 231735Z 2318/2418 25012G25KT 2SM +TSRA BR BKN025CB
     FM231930 21012G23KT P6SM VCTS BKN025CB=

USA.gov is the U.S. government's official web portal to all federal, state and local government web resources and services.